Time;durP1;ratioP1;P1;durP2;ratioP2;P2;SDS_P1;SDS_P2;PMS_P1;PMS_P2;Temp;Humidity;BMP_temperature;BMP_pressure;BME280_temperature;BME280_humidity;BME280_pressure;Samples;Min_cycle;Max_cycle;Signal;HPM_P1;HPM_P2
2022/10/04 06:24:54;;;;;;;4.65;3.70;;;;;;;;;;12209921;22;16986500;-85
2022/10/04 06:36:41;;;;;;;6.75;4.93;;;;;;;;;;12946720;23;20028;-85
2022/10/04 06:47:59;;;;;;;5.68;4.07;;;;;;;;;;12948390;23;20075;-85
2022/10/04 06:54:04;;;;;;;5.55;4.15;;;;;;;;;;12962210;23;20000;-85
2022/10/04 06:59:30;;;;;;;6.13;3.75;;;;;;;;;;12754591;23;20056;-85
2022/10/04 07:05:04;;;;;;;4.90;3.63;;;;;;;;;;12889019;23;20020;-83
2022/10/04 07:10:29;;;;;;;5.05;3.88;;;;;;;;;;12911105;23;20034;-82
2022/10/04 07:15:45;;;;;;;6.50;4.03;;;;;;;;;;12917304;23;20090;-83
2022/10/04 07:20:47;;;;;;;5.82;3.92;;;;;;;;;;12917390;23;20005;-82
2022/10/04 07:25:51;;;;;;;6.70;3.88;;;;;;;;;;12959276;23;20009;-83
2022/10/04 07:30:57;;;;;;;6.25;3.90;;;;;;;;;;12932590;23;20008;-84
2022/10/04 07:36:03;;;;;;;11.02;3.85;;;;;;;;;;12942277;23;20011;-85
2022/10/04 07:41:07;;;;;;;10.30;4.30;;;;;;;;;;12913798;23;20081;-84
2022/10/04 07:46:17;;;;;;;7.85;4.43;;;;;;;;;;12912968;23;20332;-81
2022/10/04 07:51:22;;;;;;;7.57;4.20;;;;;;;;;;12909377;23;20027;-81
2022/10/04 07:56:30;;;;;;;7.78;4.07;;;;;;;;;;12909534;23;20000;-81
2022/10/04 08:01:42;;;;;;;6.38;3.90;;;;;;;;;;12911565;23;20015;-80
2022/10/04 08:06:43;;;;;;;7.15;4.07;;;;;;;;;;12909400;23;20096;-80
2022/10/04 08:11:58;;;;;;;7.20;4.03;;;;;;;;;;12910298;23;20008;-83
2022/10/04 08:17:02;;;;;;;8.23;3.70;;;;;;;;;;12913334;23;20060;-83
2022/10/04 08:22:12;;;;;;;6.68;4.25;;;;;;;;;;12910533;23;20088;-84
2022/10/04 08:27:14;;;;;;;6.40;4.00;;;;;;;;;;12941309;23;20004;-84
2022/10/04 08:38:24;;;;;;;7.72;4.93;;;;;;;;;;12931537;23;20336;-86
2022/10/04 08:44:04;;;;;;;7.60;4.53;;;;;;;;;;12897901;23;20008;-86
2022/10/04 09:06:25;;;;;;;7.13;3.77;;;;;;;;;;12929004;23;20008;-86
2022/10/04 09:11:45;;;;;;;4.55;3.10;;;;;;;;;;12906598;23;20352;-84
2022/10/04 09:17:26;;;;;;;5.00;3.67;;;;;;;;;;12907564;23;20439;-86
2022/10/04 09:28:39;;;;;;;7.85;3.80;;;;;;;;;;12929826;23;20185;-85
2022/10/04 09:39:44;;;;;;;6.40;3.55;;;;;;;;;;12937626;23;20000;-86
2022/10/04 09:56:53;;;;;;;4.72;3.15;;;;;;;;;;12930968;23;20008;-86
2022/10/04 10:02:15;;;;;;;6.80;3.20;;;;;;;;;;12931767;23;20048;-87
2022/10/04 10:08:07;;;;;;;3.88;2.92;;;;;;;;;;12797986;23;20016;-87
2022/10/04 10:25:05;;;;;;;5.15;3.35;;;;;;;;;;12955510;23;20088;-83
2022/10/04 10:30:30;;;;;;;6.43;3.90;;;;;;;;;;12937841;23;20079;-85
2022/10/04 10:35:54;;;;;;;6.32;3.38;;;;;;;;;;12929138;23;20352;-85
2022/10/04 10:41:19;;;;;;;4.35;2.60;;;;;;;;;;12903114;23;20028;-86
2022/10/04 10:46:41;;;;;;;6.57;3.15;;;;;;;;;;12909032;23;20012;-85
2022/10/04 10:51:58;;;;;;;5.07;3.10;;;;;;;;;;12908635;23;20024;-84
2022/10/04 10:57:17;;;;;;;6.28;3.38;;;;;;;;;;12932722;23;20008;-86
2022/10/04 11:02:44;;;;;;;5.97;3.28;;;;;;;;;;12933369;22;20004;-86
2022/10/04 11:08:00;;;;;;;6.13;3.10;;;;;;;;;;12904187;23;20396;-87
2022/10/04 11:13:24;;;;;;;4.72;3.00;;;;;;;;;;12905426;23;20023;-87
2022/10/04 11:18:35;;;;;;;6.97;3.10;;;;;;;;;;12931436;23;20079;-89
2022/10/04 11:23:50;;;;;;;6.17;2.90;;;;;;;;;;12905428;23;20424;-86
2022/10/04 11:29:29;;;;;;;6.15;3.90;;;;;;;;;;12906053;23;20535;-85
2022/10/04 11:34:50;;;;;;;4.95;2.72;;;;;;;;;;12933214;23;20003;-85
2022/10/04 11:40:38;;;;;;;6.50;3.00;;;;;;;;;;12916857;23;20008;-85
2022/10/04 11:46:03;;;;;;;4.85;2.70;;;;;;;;;;12930343;23;20019;-85
2022/10/04 11:51:24;;;;;;;6.78;2.90;;;;;;;;;;12909004;23;20018;-85
2022/10/04 11:56:25;;;;;;;6.00;2.78;;;;;;;;;;12908763;23;20008;-84
2022/10/04 12:01:34;;;;;;;5.63;3.33;;;;;;;;;;12906025;23;20027;-85
2022/10/04 12:06:45;;;;;;;5.65;3.10;;;;;;;;;;12906642;23;20012;-86
2022/10/04 12:17:45;;;;;;;3.67;2.92;;;;;;;;;;12938443;23;20399;-84
2022/10/04 12:23:05;;;;;;;5.32;3.20;;;;;;;;;;12907554;23;20002;-84
2022/10/04 12:28:28;;;;;;;5.40;3.10;;;;;;;;;;12903921;23;20038;-85
2022/10/04 12:33:33;;;;;;;5.53;3.03;;;;;;;;;;12901850;23;20336;-85
2022/10/04 12:38:44;;;;;;;4.38;2.90;;;;;;;;;;12906494;23;20336;-85
2022/10/04 12:44:06;;;;;;;5.28;3.17;;;;;;;;;;12862863;23;20443;-85
2022/10/04 12:49:33;;;;;;;5.07;2.63;;;;;;;;;;12932742;23;20012;-85
2022/10/04 12:54:43;;;;;;;4.45;2.80;;;;;;;;;;12904260;23;20026;-85
2022/10/04 12:59:47;;;;;;;3.90;2.80;;;;;;;;;;12911612;23;20030;-86
2022/10/04 13:04:55;;;;;;;5.82;3.42;;;;;;;;;;12906374;23;20429;-85
2022/10/04 13:09:56;;;;;;;5.07;2.70;;;;;;;;;;12905334;23;20001;-85
2022/10/04 13:15:28;;;;;;;4.57;3.13;;;;;;;;;;12903871;23;20379;-85
2022/10/04 13:20:48;;;;;;;4.93;2.67;;;;;;;;;;12933450;22;20096;-86
2022/10/04 13:26:08;;;;;;;4.47;2.43;;;;;;;;;;12927372;23;20011;-85
2022/10/04 13:31:33;;;;;;;3.97;2.50;;;;;;;;;;12934008;23;20709;-85
2022/10/04 13:36:43;;;;;;;4.07;2.58;;;;;;;;;;12906033;23;20505;-86
2022/10/04 13:42:05;;;;;;;4.35;2.55;;;;;;;;;;12934136;23;20086;-85
2022/10/04 13:47:11;;;;;;;4.43;2.35;;;;;;;;;;12904865;23;20016;-86
2022/10/04 13:58:14;;;;;;;4.05;2.97;;;;;;;;;;12931103;23;20032;-85
2022/10/04 14:03:34;;;;;;;7.78;2.95;;;;;;;;;;12903130;23;20336;-85
2022/10/04 14:19:59;;;;;;;5.45;2.33;;;;;;;;;;12962619;23;20076;-84
2022/10/04 14:48:17;;;;;;;3.60;2.30;;;;;;;;;;12710674;23;20033;-85
2022/10/04 16:13:05;;;;;;;5.75;2.58;;;;;;;;;;12976757;22;20028;-83
2022/10/04 16:18:58;;;;;;;5.45;3.25;;;;;;;;;;12951414;23;20054;-83
2022/10/04 16:24:25;;;;;;;4.95;3.40;;;;;;;;;;12942532;23;20056;-84
2022/10/04 16:30:17;;;;;;;3.72;2.70;;;;;;;;;;12962561;23;20016;-88
